sensor_id;sensor_type;location;lat;lon;timestamp;P1;durP1;ratioP1;P2;durP2;ratioP2
44670;SDS011;48397;53.016;-2.260;2022-07-29T00:00:38;5.03;;;2.70;;
44670;SDS011;48397;53.016;-2.260;2022-07-29T00:03:06;6.35;;;2.80;;
44670;SDS011;48397;53.016;-2.260;2022-07-29T00:05:34;7.65;;;2.78;;
44670;SDS011;48397;53.016;-2.260;2022-07-29T00:10:29;6.45;;;2.65;;
44670;SDS011;48397;53.016;-2.260;2022-07-29T00:12:58;5.30;;;2.38;;
44670;SDS011;48397;53.016;-2.260;2022-07-29T00:15:26;5.72;;;2.75;;
44670;SDS011;48397;53.016;-2.260;2022-07-29T00:20:21;5.32;;;2.40;;
44670;SDS011;48397;53.016;-2.260;2022-07-29T00:22:49;8.45;;;2.90;;
44670;SDS011;48397;53.016;-2.260;2022-07-29T00:25:17;5.22;;;2.58;;
44670;SDS011;48397;53.016;-2.260;2022-07-29T00:27:45;8.32;;;2.55;;
44670;SDS011;48397;53.016;-2.260;2022-07-29T00:30:17;6.72;;;2.90;;
44670;SDS011;48397;53.016;-2.260;2022-07-29T00:32:44;7.05;;;2.40;;
44670;SDS011;48397;53.016;-2.260;2022-07-29T00:35:12;8.40;;;2.80;;
44670;SDS011;48397;53.016;-2.260;2022-07-29T00:37:59;7.80;;;2.83;;
44670;SDS011;48397;53.016;-2.260;2022-07-29T00:40:28;5.90;;;2.95;;
44670;SDS011;48397;53.016;-2.260;2022-07-29T00:42:55;4.85;;;2.47;;
44670;SDS011;48397;53.016;-2.260;2022-07-29T00:45:25;10.50;;;2.20;;
44670;SDS011;48397;53.016;-2.260;2022-07-29T00:47:53;6.13;;;2.45;;
44670;SDS011;48397;53.016;-2.260;2022-07-29T00:50:21;4.85;;;2.63;;
44670;SDS011;48397;53.016;-2.260;2022-07-29T00:52:50;5.10;;;2.35;;
44670;SDS011;48397;53.016;-2.260;2022-07-29T00:55:18;5.47;;;2.45;;
44670;SDS011;48397;53.016;-2.260;2022-07-29T00:57:47;5.68;;;2.30;;
44670;SDS011;48397;53.016;-2.260;2022-07-29T01:00:19;7.38;;;2.42;;
44670;SDS011;48397;53.016;-2.260;2022-07-29T01:02:49;6.85;;;2.60;;
44670;SDS011;48397;53.016;-2.260;2022-07-29T01:05:18;5.97;;;2.30;;
44670;SDS011;48397;53.016;-2.260;2022-07-29T01:07:48;5.40;;;2.22;;
44670;SDS011;48397;53.016;-2.260;2022-07-29T01:10:19;5.38;;;2.40;;
44670;SDS011;48397;53.016;-2.260;2022-07-29T01:12:49;4.68;;;2.10;;
44670;SDS011;48397;53.016;-2.260;2022-07-29T01:15:18;4.43;;;2.25;;
44670;SDS011;48397;53.016;-2.260;2022-07-29T01:29:02;9.85;;;2.15;;
44670;SDS011;48397;53.016;-2.260;2022-07-29T01:31:42;7.80;;;2.10;;
44670;SDS011;48397;53.016;-2.260;2022-07-29T01:37:18;4.80;;;1.70;;
44670;SDS011;48397;53.016;-2.260;2022-07-29T01:40:03;8.80;;;2.08;;
44670;SDS011;48397;53.016;-2.260;2022-07-29T01:42:38;6.15;;;2.20;;
44670;SDS011;48397;53.016;-2.260;2022-07-29T01:45:15;4.65;;;1.75;;
44670;SDS011;48397;53.016;-2.260;2022-07-29T01:47:46;7.15;;;1.90;;
44670;SDS011;48397;53.016;-2.260;2022-07-29T01:50:26;5.10;;;1.88;;
44670;SDS011;48397;53.016;-2.260;2022-07-29T01:53:08;4.70;;;1.70;;
44670;SDS011;48397;53.016;-2.260;2022-07-29T01:55:42;4.88;;;1.90;;
44670;SDS011;48397;53.016;-2.260;2022-07-29T01:58:13;5.47;;;1.70;;
44670;SDS011;48397;53.016;-2.260;2022-07-29T02:00:46;3.42;;;1.85;;
44670;SDS011;48397;53.016;-2.260;2022-07-29T02:03:16;6.93;;;2.05;;
44670;SDS011;48397;53.016;-2.260;2022-07-29T02:05:46;5.93;;;1.70;;
44670;SDS011;48397;53.016;-2.260;2022-07-29T02:08:15;4.00;;;1.70;;
44670;SDS011;48397;53.016;-2.260;2022-07-29T02:10:46;8.70;;;1.98;;
44670;SDS011;48397;53.016;-2.260;2022-07-29T02:13:15;5.40;;;2.60;;
44670;SDS011;48397;53.016;-2.260;2022-07-29T02:15:45;6.25;;;1.77;;
44670;SDS011;48397;53.016;-2.260;2022-07-29T02:18:18;5.70;;;1.95;;
44670;SDS011;48397;53.016;-2.260;2022-07-29T02:20:48;5.22;;;1.77;;
44670;SDS011;48397;53.016;-2.260;2022-07-29T02:23:18;5.80;;;1.85;;
44670;SDS011;48397;53.016;-2.260;2022-07-29T02:25:48;2.88;;;1.65;;
44670;SDS011;48397;53.016;-2.260;2022-07-29T02:28:18;6.88;;;1.90;;
44670;SDS011;48397;53.016;-2.260;2022-07-29T02:30:48;6.20;;;1.90;;
44670;SDS011;48397;53.016;-2.260;2022-07-29T02:33:20;6.07;;;1.80;;
44670;SDS011;48397;53.016;-2.260;2022-07-29T02:35:50;4.53;;;1.33;;
44670;SDS011;48397;53.016;-2.260;2022-07-29T02:38:19;4.75;;;1.70;;
44670;SDS011;48397;53.016;-2.260;2022-07-29T02:41:08;4.97;;;1.50;;
44670;SDS011;48397;53.016;-2.260;2022-07-29T02:43:39;2.95;;;1.52;;
44670;SDS011;48397;53.016;-2.260;2022-07-29T02:46:11;5.15;;;1.40;;
44670;SDS011;48397;53.016;-2.260;2022-07-29T02:48:58;4.10;;;1.45;;
44670;SDS011;48397;53.016;-2.260;2022-07-29T02:51:40;5.03;;;1.40;;
44670;SDS011;48397;53.016;-2.260;2022-07-29T02:54:24;4.05;;;1.70;;
44670;SDS011;48397;53.016;-2.260;2022-07-29T02:56:59;2.15;;;1.27;;
44670;SDS011;48397;53.016;-2.260;2022-07-29T02:59:30;7.28;;;2.05;;
44670;SDS011;48397;53.016;-2.260;2022-07-29T03:02:01;4.25;;;1.50;;
44670;SDS011;48397;53.016;-2.260;2022-07-29T03:04:31;5.55;;;1.55;;
44670;SDS011;48397;53.016;-2.260;2022-07-29T03:07:01;3.67;;;1.40;;
44670;SDS011;48397;53.016;-2.260;2022-07-29T03:09:30;6.93;;;1.55;;
44670;SDS011;48397;53.016;-2.260;2022-07-29T03:11:58;5.40;;;1.67;;
44670;SDS011;48397;53.016;-2.260;2022-07-29T03:14:27;3.40;;;1.50;;
44670;SDS011;48397;53.016;-2.260;2022-07-29T03:16:56;3.38;;;1.73;;
44670;SDS011;48397;53.016;-2.260;2022-07-29T03:19:25;4.88;;;1.67;;
44670;SDS011;48397;53.016;-2.260;2022-07-29T03:21:55;7.25;;;1.67;;
44670;SDS011;48397;53.016;-2.260;2022-07-29T03:24:30;6.18;;;1.73;;
44670;SDS011;48397;53.016;-2.260;2022-07-29T03:27:01;6.20;;;1.83;;
44670;SDS011;48397;53.016;-2.260;2022-07-29T03:29:29;3.67;;;1.23;;
44670;SDS011;48397;53.016;-2.260;2022-07-29T03:32:04;4.75;;;1.77;;
44670;SDS011;48397;53.016;-2.260;2022-07-29T03:34:36;5.85;;;2.00;;
44670;SDS011;48397;53.016;-2.260;2022-07-29T03:37:05;4.57;;;1.60;;
44670;SDS011;48397;53.016;-2.260;2022-07-29T03:39:35;4.43;;;1.85;;
44670;SDS011;48397;53.016;-2.260;2022-07-29T03:42:07;2.78;;;1.73;;
44670;SDS011;48397;53.016;-2.260;2022-07-29T03:44:38;5.22;;;2.00;;
44670;SDS011;48397;53.016;-2.260;2022-07-29T03:47:08;4.53;;;1.80;;
44670;SDS011;48397;53.016;-2.260;2022-07-29T03:49:38;6.03;;;1.92;;
44670;SDS011;48397;53.016;-2.260;2022-07-29T03:52:07;5.35;;;2.00;;
44670;SDS011;48397;53.016;-2.260;2022-07-29T03:54:35;5.07;;;2.03;;
44670;SDS011;48397;53.016;-2.260;2022-07-29T03:57:03;6.50;;;1.90;;
44670;SDS011;48397;53.016;-2.260;2022-07-29T03:59:33;4.22;;;2.28;;
44670;SDS011;48397;53.016;-2.260;2022-07-29T04:02:02;7.20;;;2.33;;
44670;SDS011;48397;53.016;-2.260;2022-07-29T04:04:34;6.82;;;2.53;;
44670;SDS011;48397;53.016;-2.260;2022-07-29T04:07:03;6.43;;;2.35;;
44670;SDS011;48397;53.016;-2.260;2022-07-29T04:09:31;4.40;;;3.30;;
44670;SDS011;48397;53.016;-2.260;2022-07-29T04:14:30;5.75;;;2.42;;
44670;SDS011;48397;53.016;-2.260;2022-07-29T04:16:59;7.63;;;2.95;;
44670;SDS011;48397;53.016;-2.260;2022-07-29T04:19:27;9.00;;;2.83;;
44670;SDS011;48397;53.016;-2.260;2022-07-29T04:21:55;6.82;;;2.60;;
44670;SDS011;48397;53.016;-2.260;2022-07-29T04:24:23;7.32;;;2.90;;
44670;SDS011;48397;53.016;-2.260;2022-07-29T04:26:51;7.70;;;2.72;;
44670;SDS011;48397;53.016;-2.260;2022-07-29T04:31:47;6.35;;;2.55;;
44670;SDS011;48397;53.016;-2.260;2022-07-29T04:34:15;7.22;;;2.70;;
44670;SDS011;48397;53.016;-2.260;2022-07-29T04:36:43;5.05;;;3.08;;
44670;SDS011;48397;53.016;-2.260;2022-07-29T04:39:11;7.55;;;2.50;;
44670;SDS011;48397;53.016;-2.260;2022-07-29T04:41:44;5.32;;;2.47;;
44670;SDS011;48397;53.016;-2.260;2022-07-29T04:44:12;5.57;;;2.85;;
44670;SDS011;48397;53.016;-2.260;2022-07-29T04:46:40;12.38;;;3.08;;
44670;SDS011;48397;53.016;-2.260;2022-07-29T04:49:08;6.50;;;2.88;;
44670;SDS011;48397;53.016;-2.260;2022-07-29T04:51:36;9.32;;;2.85;;
44670;SDS011;48397;53.016;-2.260;2022-07-29T04:54:04;7.68;;;3.10;;
44670;SDS011;48397;53.016;-2.260;2022-07-29T04:56:33;5.88;;;2.80;;
44670;SDS011;48397;53.016;-2.260;2022-07-29T04:59:00;6.03;;;2.80;;
44670;SDS011;48397;53.016;-2.260;2022-07-29T05:01:28;7.85;;;3.00;;
44670;SDS011;48397;53.016;-2.260;2022-07-29T05:03:56;8.57;;;2.83;;
44670;SDS011;48397;53.016;-2.260;2022-07-29T05:06:26;5.95;;;2.60;;
44670;SDS011;48397;53.016;-2.260;2022-07-29T05:08:54;5.03;;;3.00;;
44670;SDS011;48397;53.016;-2.260;2022-07-29T05:11:22;9.43;;;2.60;;
44670;SDS011;48397;53.016;-2.260;2022-07-29T05:13:56;5.32;;;2.42;;
44670;SDS011;48397;53.016;-2.260;2022-07-29T05:16:23;8.27;;;2.97;;
44670;SDS011;48397;53.016;-2.260;2022-07-29T05:18:51;9.63;;;3.00;;
44670;SDS011;48397;53.016;-2.260;2022-07-29T05:21:19;7.50;;;2.90;;
44670;SDS011;48397;53.016;-2.260;2022-07-29T05:23:46;5.55;;;2.67;;
44670;SDS011;48397;53.016;-2.260;2022-07-29T05:26:14;9.40;;;3.25;;
44670;SDS011;48397;53.016;-2.260;2022-07-29T05:28:42;5.70;;;3.10;;
44670;SDS011;48397;53.016;-2.260;2022-07-29T05:31:10;8.00;;;2.55;;
44670;SDS011;48397;53.016;-2.260;2022-07-29T05:33:38;5.60;;;2.72;;
44670;SDS011;48397;53.016;-2.260;2022-07-29T05:36:06;6.90;;;2.92;;
44670;SDS011;48397;53.016;-2.260;2022-07-29T05:38:35;6.15;;;2.78;;
44670;SDS011;48397;53.016;-2.260;2022-07-29T05:41:04;6.43;;;2.63;;
44670;SDS011;48397;53.016;-2.260;2022-07-29T05:43:32;6.45;;;2.83;;
44670;SDS011;48397;53.016;-2.260;2022-07-29T05:46:00;9.52;;;2.50;;
44670;SDS011;48397;53.016;-2.260;2022-07-29T05:48:28;5.80;;;2.95;;
44670;SDS011;48397;53.016;-2.260;2022-07-29T05:53:23;6.78;;;3.25;;
44670;SDS011;48397;53.016;-2.260;2022-07-29T05:55:51;7.95;;;2.78;;
44670;SDS011;48397;53.016;-2.260;2022-07-29T05:58:19;6.05;;;2.92;;
44670;SDS011;48397;53.016;-2.260;2022-07-29T06:03:15;7.90;;;3.50;;
44670;SDS011;48397;53.016;-2.260;2022-07-29T06:05:43;5.18;;;2.67;;
44670;SDS011;48397;53.016;-2.260;2022-07-29T06:08:10;7.38;;;2.78;;
44670;SDS011;48397;53.016;-2.260;2022-07-29T06:10:38;5.28;;;2.90;;
44670;SDS011;48397;53.016;-2.260;2022-07-29T06:13:06;5.05;;;2.58;;
44670;SDS011;48397;53.016;-2.260;2022-07-29T06:18:03;7.10;;;2.75;;
44670;SDS011;48397;53.016;-2.260;2022-07-29T06:20:36;5.45;;;3.00;;
44670;SDS011;48397;53.016;-2.260;2022-07-29T06:23:04;7.53;;;3.05;;
44670;SDS011;48397;53.016;-2.260;2022-07-29T06:25:32;7.45;;;3.70;;
44670;SDS011;48397;53.016;-2.260;2022-07-29T06:28:02;6.63;;;3.08;;
44670;SDS011;48397;53.016;-2.260;2022-07-29T06:30:30;7.05;;;3.15;;
44670;SDS011;48397;53.016;-2.260;2022-07-29T06:32:58;8.52;;;3.20;;
44670;SDS011;48397;53.016;-2.260;2022-07-29T06:35:27;7.72;;;3.38;;
44670;SDS011;48397;53.016;-2.260;2022-07-29T06:38:08;7.15;;;3.80;;
44670;SDS011;48397;53.016;-2.260;2022-07-29T06:40:57;7.40;;;3.60;;
44670;SDS011;48397;53.016;-2.260;2022-07-29T06:43:40;5.50;;;3.22;;
44670;SDS011;48397;53.016;-2.260;2022-07-29T06:46:20;7.60;;;3.03;;
44670;SDS011;48397;53.016;-2.260;2022-07-29T06:48:50;9.45;;;3.08;;
44670;SDS011;48397;53.016;-2.260;2022-07-29T06:51:19;6.93;;;2.90;;
44670;SDS011;48397;53.016;-2.260;2022-07-29T06:53:50;13.10;;;3.15;;
44670;SDS011;48397;53.016;-2.260;2022-07-29T06:56:29;8.82;;;3.28;;
44670;SDS011;48397;53.016;-2.260;2022-07-29T06:59:06;5.22;;;2.70;;
44670;SDS011;48397;53.016;-2.260;2022-07-29T07:01:36;5.78;;;3.42;;
44670;SDS011;48397;53.016;-2.260;2022-07-29T07:04:07;8.00;;;2.58;;
44670;SDS011;48397;53.016;-2.260;2022-07-29T07:06:36;9.35;;;2.88;;
44670;SDS011;48397;53.016;-2.260;2022-07-29T07:09:04;12.88;;;3.20;;
44670;SDS011;48397;53.016;-2.260;2022-07-29T07:11:33;10.18;;;3.00;;
44670;SDS011;48397;53.016;-2.260;2022-07-29T07:14:00;7.07;;;2.55;;
44670;SDS011;48397;53.016;-2.260;2022-07-29T07:16:30;7.70;;;2.50;;
44670;SDS011;48397;53.016;-2.260;2022-07-29T07:18:59;5.55;;;2.65;;
44670;SDS011;48397;53.016;-2.260;2022-07-29T07:21:27;5.32;;;2.50;;
44670;SDS011;48397;53.016;-2.260;2022-07-29T07:23:57;4.38;;;2.50;;
44670;SDS011;48397;53.016;-2.260;2022-07-29T07:26:25;8.63;;;2.88;;
44670;SDS011;48397;53.016;-2.260;2022-07-29T07:28:54;5.25;;;2.47;;
44670;SDS011;48397;53.016;-2.260;2022-07-29T07:31:21;5.85;;;2.50;;
44670;SDS011;48397;53.016;-2.260;2022-07-29T07:33:49;4.95;;;2.60;;
44670;SDS011;48397;53.016;-2.260;2022-07-29T07:36:18;11.18;;;2.78;;
44670;SDS011;48397;53.016;-2.260;2022-07-29T07:38:46;8.60;;;2.65;;
44670;SDS011;48397;53.016;-2.260;2022-07-29T07:43:41;5.07;;;2.40;;
44670;SDS011;48397;53.016;-2.260;2022-07-29T07:46:09;6.57;;;2.50;;
44670;SDS011;48397;53.016;-2.260;2022-07-29T07:48:37;7.20;;;3.10;;
44670;SDS011;48397;53.016;-2.260;2022-07-29T07:51:06;3.88;;;2.40;;
44670;SDS011;48397;53.016;-2.260;2022-07-29T07:56:02;4.47;;;2.45;;
44670;SDS011;48397;53.016;-2.260;2022-07-29T07:58:37;5.95;;;2.67;;
44670;SDS011;48397;53.016;-2.260;2022-07-29T08:01:06;7.90;;;2.95;;
44670;SDS011;48397;53.016;-2.260;2022-07-29T08:03:34;6.13;;;2.72;;
44670;SDS011;48397;53.016;-2.260;2022-07-29T08:08:30;4.68;;;2.35;;
44670;SDS011;48397;53.016;-2.260;2022-07-29T08:10:58;7.90;;;2.70;;
44670;SDS011;48397;53.016;-2.260;2022-07-29T08:13:34;6.38;;;2.60;;
44670;SDS011;48397;53.016;-2.260;2022-07-29T08:16:06;6.35;;;2.78;;
44670;SDS011;48397;53.016;-2.260;2022-07-29T08:18:43;5.90;;;2.80;;
44670;SDS011;48397;53.016;-2.260;2022-07-29T08:21:13;6.72;;;3.00;;
44670;SDS011;48397;53.016;-2.260;2022-07-29T08:23:45;5.45;;;2.72;;
44670;SDS011;48397;53.016;-2.260;2022-07-29T08:26:49;7.55;;;2.47;;
44670;SDS011;48397;53.016;-2.260;2022-07-29T08:29:17;5.80;;;2.80;;
44670;SDS011;48397;53.016;-2.260;2022-07-29T08:31:46;6.88;;;2.25;;
44670;SDS011;48397;53.016;-2.260;2022-07-29T08:34:13;7.43;;;2.42;;
44670;SDS011;48397;53.016;-2.260;2022-07-29T08:36:41;10.57;;;2.42;;
44670;SDS011;48397;53.016;-2.260;2022-07-29T08:39:09;6.80;;;2.72;;
44670;SDS011;48397;53.016;-2.260;2022-07-29T08:41:37;6.88;;;2.70;;
44670;SDS011;48397;53.016;-2.260;2022-07-29T08:44:04;7.00;;;2.45;;
44670;SDS011;48397;53.016;-2.260;2022-07-29T08:46:32;8.30;;;3.15;;
44670;SDS011;48397;53.016;-2.260;2022-07-29T08:51:28;4.18;;;2.47;;
44670;SDS011;48397;53.016;-2.260;2022-07-29T08:54:15;9.98;;;2.40;;
44670;SDS011;48397;53.016;-2.260;2022-07-29T08:56:47;5.43;;;2.42;;
44670;SDS011;48397;53.016;-2.260;2022-07-29T08:59:20;6.57;;;2.65;;
44670;SDS011;48397;53.016;-2.260;2022-07-29T09:01:51;8.60;;;2.45;;
44670;SDS011;48397;53.016;-2.260;2022-07-29T09:04:21;8.45;;;2.55;;
44670;SDS011;48397;53.016;-2.260;2022-07-29T09:06:52;7.20;;;2.50;;
44670;SDS011;48397;53.016;-2.260;2022-07-29T09:09:21;5.72;;;2.50;;
44670;SDS011;48397;53.016;-2.260;2022-07-29T09:14:17;6.63;;;2.60;;
44670;SDS011;48397;53.016;-2.260;2022-07-29T09:16:54;5.05;;;2.67;;
44670;SDS011;48397;53.016;-2.260;2022-07-29T09:19:24;8.40;;;2.50;;
44670;SDS011;48397;53.016;-2.260;2022-07-29T09:22:03;7.03;;;3.13;;
44670;SDS011;48397;53.016;-2.260;2022-07-29T09:24:39;7.55;;;2.60;;
44670;SDS011;48397;53.016;-2.260;2022-07-29T09:27:19;7.43;;;2.72;;
44670;SDS011;48397;53.016;-2.260;2022-07-29T09:30:07;7.75;;;2.58;;
44670;SDS011;48397;53.016;-2.260;2022-07-29T09:33:01;7.05;;;2.90;;
44670;SDS011;48397;53.016;-2.260;2022-07-29T09:35:30;7.30;;;2.67;;
44670;SDS011;48397;53.016;-2.260;2022-07-29T09:37:58;8.73;;;3.00;;
44670;SDS011;48397;53.016;-2.260;2022-07-29T09:40:37;6.13;;;2.95;;
44670;SDS011;48397;53.016;-2.260;2022-07-29T09:43:10;6.78;;;3.08;;
44670;SDS011;48397;53.016;-2.260;2022-07-29T09:45:39;5.60;;;2.90;;
44670;SDS011;48397;53.016;-2.260;2022-07-29T09:48:14;7.63;;;2.83;;
44670;SDS011;48397;53.016;-2.260;2022-07-29T09:50:45;6.28;;;2.90;;
44670;SDS011;48397;53.016;-2.260;2022-07-29T09:53:29;6.10;;;2.97;;
44670;SDS011;48397;53.016;-2.260;2022-07-29T09:56:13;6.40;;;3.33;;
44670;SDS011;48397;53.016;-2.260;2022-07-29T09:58:43;5.45;;;2.75;;
44670;SDS011;48397;53.016;-2.260;2022-07-29T10:01:10;7.55;;;2.78;;
44670;SDS011;48397;53.016;-2.260;2022-07-29T10:03:52;5.18;;;3.00;;
44670;SDS011;48397;53.016;-2.260;2022-07-29T10:06:20;4.82;;;2.92;;
44670;SDS011;48397;53.016;-2.260;2022-07-29T10:08:47;7.47;;;3.33;;
44670;SDS011;48397;53.016;-2.260;2022-07-29T10:11:17;7.63;;;3.53;;
44670;SDS011;48397;53.016;-2.260;2022-07-29T10:13:47;8.00;;;3.13;;
44670;SDS011;48397;53.016;-2.260;2022-07-29T10:16:15;7.38;;;3.25;;
44670;SDS011;48397;53.016;-2.260;2022-07-29T10:18:44;9.02;;;3.42;;
44670;SDS011;48397;53.016;-2.260;2022-07-29T10:21:13;6.35;;;3.38;;
44670;SDS011;48397;53.016;-2.260;2022-07-29T10:24:01;12.35;;;3.40;;
44670;SDS011;48397;53.016;-2.260;2022-07-29T10:26:31;8.95;;;2.95;;
44670;SDS011;48397;53.016;-2.260;2022-07-29T10:29:02;7.65;;;3.30;;
44670;SDS011;48397;53.016;-2.260;2022-07-29T10:31:35;5.30;;;3.30;;
44670;SDS011;48397;53.016;-2.260;2022-07-29T10:34:23;5.90;;;2.83;;
44670;SDS011;48397;53.016;-2.260;2022-07-29T10:37:07;11.90;;;3.42;;
44670;SDS011;48397;53.016;-2.260;2022-07-29T10:40:10;8.77;;;3.60;;
44670;SDS011;48397;53.016;-2.260;2022-07-29T10:43:15;10.00;;;3.50;;
44670;SDS011;48397;53.016;-2.260;2022-07-29T10:45:55;8.90;;;3.13;;
44670;SDS011;48397;53.016;-2.260;2022-07-29T10:48:24;6.03;;;3.05;;
44670;SDS011;48397;53.016;-2.260;2022-07-29T10:50:53;10.52;;;3.05;;
44670;SDS011;48397;53.016;-2.260;2022-07-29T10:53:23;7.57;;;3.40;;
44670;SDS011;48397;53.016;-2.260;2022-07-29T10:55:51;6.07;;;2.97;;
44670;SDS011;48397;53.016;-2.260;2022-07-29T10:58:22;6.13;;;3.38;;
44670;SDS011;48397;53.016;-2.260;2022-07-29T11:00:52;12.48;;;3.55;;
44670;SDS011;48397;53.016;-2.260;2022-07-29T11:04:05;8.90;;;3.80;;
44670;SDS011;48397;53.016;-2.260;2022-07-29T11:06:18;6.68;;;3.70;;
44670;SDS011;48397;53.016;-2.260;2022-07-29T11:11:51;7.43;;;3.72;;
44670;SDS011;48397;53.016;-2.260;2022-07-29T11:17:24;9.18;;;3.53;;
44670;SDS011;48397;53.016;-2.260;2022-07-29T11:20:29;10.10;;;3.95;;
44670;SDS011;48397;53.016;-2.260;2022-07-29T11:22:59;8.20;;;4.05;;
44670;SDS011;48397;53.016;-2.260;2022-07-29T11:25:29;6.80;;;3.80;;
44670;SDS011;48397;53.016;-2.260;2022-07-29T11:28:17;9.68;;;4.05;;
44670;SDS011;48397;53.016;-2.260;2022-07-29T11:30:52;7.88;;;3.95;;
44670;SDS011;48397;53.016;-2.260;2022-07-29T11:33:30;5.93;;;3.90;;
44670;SDS011;48397;53.016;-2.260;2022-07-29T11:36:19;12.90;;;4.10;;
44670;SDS011;48397;53.016;-2.260;2022-07-29T11:39:24;8.55;;;4.10;;
44670;SDS011;48397;53.016;-2.260;2022-07-29T11:45:13;7.80;;;4.18;;
44670;SDS011;48397;53.016;-2.260;2022-07-29T11:48:02;7.95;;;3.90;;
44670;SDS011;48397;53.016;-2.260;2022-07-29T11:50:52;8.25;;;3.92;;
44670;SDS011;48397;53.016;-2.260;2022-07-29T11:53:20;6.80;;;4.15;;
44670;SDS011;48397;53.016;-2.260;2022-07-29T11:55:48;14.30;;;7.50;;
44670;SDS011;48397;53.016;-2.260;2022-07-29T11:58:24;14.52;;;6.22;;
44670;SDS011;48397;53.016;-2.260;2022-07-29T12:00:53;13.38;;;4.60;;
44670;SDS011;48397;53.016;-2.260;2022-07-29T12:03:26;10.32;;;4.00;;
44670;SDS011;48397;53.016;-2.260;2022-07-29T12:06:02;9.13;;;4.60;;
44670;SDS011;48397;53.016;-2.260;2022-07-29T12:08:42;10.88;;;4.13;;
44670;SDS011;48397;53.016;-2.260;2022-07-29T12:11:15;11.95;;;4.10;;
44670;SDS011;48397;53.016;-2.260;2022-07-29T12:13:50;9.50;;;4.60;;
44670;SDS011;48397;53.016;-2.260;2022-07-29T12:16:19;7.15;;;4.40;;
44670;SDS011;48397;53.016;-2.260;2022-07-29T12:18:59;15.75;;;5.57;;
44670;SDS011;48397;53.016;-2.260;2022-07-29T12:21:29;9.05;;;4.93;;
44670;SDS011;48397;53.016;-2.260;2022-07-29T12:24:22;13.65;;;5.25;;
44670;SDS011;48397;53.016;-2.260;2022-07-29T12:26:54;8.02;;;4.40;;
44670;SDS011;48397;53.016;-2.260;2022-07-29T12:29:23;11.00;;;4.60;;
44670;SDS011;48397;53.016;-2.260;2022-07-29T12:32:02;11.48;;;5.40;;
44670;SDS011;48397;53.016;-2.260;2022-07-29T12:34:31;11.85;;;6.03;;
44670;SDS011;48397;53.016;-2.260;2022-07-29T12:36:59;8.23;;;5.32;;
44670;SDS011;48397;53.016;-2.260;2022-07-29T12:39:28;8.63;;;5.07;;
44670;SDS011;48397;53.016;-2.260;2022-07-29T12:44:46;9.88;;;5.40;;
44670;SDS011;48397;53.016;-2.260;2022-07-29T12:47:15;13.30;;;6.03;;
44670;SDS011;48397;53.016;-2.260;2022-07-29T12:49:45;9.43;;;5.03;;
44670;SDS011;48397;53.016;-2.260;2022-07-29T12:52:27;11.93;;;5.80;;
44670;SDS011;48397;53.016;-2.260;2022-07-29T12:54:56;10.85;;;5.05;;
44670;SDS011;48397;53.016;-2.260;2022-07-29T12:57:24;9.80;;;5.00;;
44670;SDS011;48397;53.016;-2.260;2022-07-29T13:02:37;9.00;;;6.15;;
44670;SDS011;48397;53.016;-2.260;2022-07-29T13:05:06;13.27;;;6.38;;
44670;SDS011;48397;53.016;-2.260;2022-07-29T13:07:38;12.82;;;5.95;;
44670;SDS011;48397;53.016;-2.260;2022-07-29T13:10:23;14.23;;;6.22;;
44670;SDS011;48397;53.016;-2.260;2022-07-29T13:13:05;13.35;;;5.90;;
44670;SDS011;48397;53.016;-2.260;2022-07-29T13:15:43;11.10;;;6.15;;
44670;SDS011;48397;53.016;-2.260;2022-07-29T13:18:27;10.48;;;6.13;;
44670;SDS011;48397;53.016;-2.260;2022-07-29T13:21:12;10.05;;;5.72;;
44670;SDS011;48397;53.016;-2.260;2022-07-29T13:23:42;11.38;;;5.90;;
44670;SDS011;48397;53.016;-2.260;2022-07-29T13:28:44;8.95;;;5.88;;
44670;SDS011;48397;53.016;-2.260;2022-07-29T13:31:12;10.13;;;6.55;;
44670;SDS011;48397;53.016;-2.260;2022-07-29T13:33:40;11.98;;;6.30;;
44670;SDS011;48397;53.016;-2.260;2022-07-29T13:36:08;11.52;;;6.28;;
44670;SDS011;48397;53.016;-2.260;2022-07-29T13:41:03;10.95;;;6.03;;
44670;SDS011;48397;53.016;-2.260;2022-07-29T13:43:31;11.15;;;6.40;;
44670;SDS011;48397;53.016;-2.260;2022-07-29T13:45:59;10.23;;;5.80;;
44670;SDS011;48397;53.016;-2.260;2022-07-29T13:48:26;16.55;;;6.72;;
44670;SDS011;48397;53.016;-2.260;2022-07-29T13:50:54;14.32;;;6.13;;
44670;SDS011;48397;53.016;-2.260;2022-07-29T13:53:23;10.38;;;6.68;;
44670;SDS011;48397;53.016;-2.260;2022-07-29T13:55:53;14.25;;;6.35;;
44670;SDS011;48397;53.016;-2.260;2022-07-29T13:58:21;11.02;;;6.43;;
44670;SDS011;48397;53.016;-2.260;2022-07-29T14:00:49;11.65;;;6.97;;
44670;SDS011;48397;53.016;-2.260;2022-07-29T14:05:45;14.55;;;6.45;;
44670;SDS011;48397;53.016;-2.260;2022-07-29T14:08:13;10.00;;;6.20;;
44670;SDS011;48397;53.016;-2.260;2022-07-29T14:13:08;14.05;;;6.63;;
44670;SDS011;48397;53.016;-2.260;2022-07-29T14:15:51;15.20;;;6.75;;
44670;SDS011;48397;53.016;-2.260;2022-07-29T14:18:19;14.27;;;6.45;;
44670;SDS011;48397;53.016;-2.260;2022-07-29T14:20:47;11.75;;;6.30;;
44670;SDS011;48397;53.016;-2.260;2022-07-29T14:25:46;10.13;;;6.32;;
44670;SDS011;48397;53.016;-2.260;2022-07-29T14:28:15;11.45;;;5.50;;
44670;SDS011;48397;53.016;-2.260;2022-07-29T14:30:43;13.48;;;6.57;;
44670;SDS011;48397;53.016;-2.260;2022-07-29T18:13:22;9.88;;;5.50;;
44670;SDS011;48397;53.016;-2.260;2022-07-29T18:15:52;12.25;;;5.50;;
44670;SDS011;48397;53.016;-2.260;2022-07-29T18:18:26;7.90;;;5.32;;
44670;SDS011;48397;53.016;-2.260;2022-07-29T18:20:54;10.02;;;4.97;;
44670;SDS011;48397;53.016;-2.260;2022-07-29T18:23:22;14.95;;;5.50;;
44670;SDS011;48397;53.016;-2.260;2022-07-29T18:28:18;10.98;;;5.57;;
44670;SDS011;48397;53.016;-2.260;2022-07-29T18:30:46;8.43;;;4.82;;
44670;SDS011;48397;53.016;-2.260;2022-07-29T18:35:49;7.07;;;4.75;;
44670;SDS011;48397;53.016;-2.260;2022-07-29T18:38:37;8.20;;;4.57;;
44670;SDS011;48397;53.016;-2.260;2022-07-29T18:41:05;8.70;;;4.68;;
44670;SDS011;48397;53.016;-2.260;2022-07-29T18:43:33;12.20;;;4.88;;
44670;SDS011;48397;53.016;-2.260;2022-07-29T18:46:01;10.50;;;4.65;;
44670;SDS011;48397;53.016;-2.260;2022-07-29T18:48:31;8.07;;;4.63;;
44670;SDS011;48397;53.016;-2.260;2022-07-29T18:51:00;8.43;;;4.32;;
44670;SDS011;48397;53.016;-2.260;2022-07-29T18:53:35;10.48;;;4.50;;
44670;SDS011;48397;53.016;-2.260;2022-07-29T18:56:03;11.20;;;4.75;;
44670;SDS011;48397;53.016;-2.260;2022-07-29T18:58:31;7.07;;;4.55;;
44670;SDS011;48397;53.016;-2.260;2022-07-29T19:00:59;9.20;;;5.10;;
44670;SDS011;48397;53.016;-2.260;2022-07-29T19:03:28;11.25;;;4.35;;
44670;SDS011;48397;53.016;-2.260;2022-07-29T19:08:23;10.00;;;4.50;;
44670;SDS011;48397;53.016;-2.260;2022-07-29T19:10:51;6.13;;;4.47;;
44670;SDS011;48397;53.016;-2.260;2022-07-29T19:13:19;6.85;;;4.38;;
44670;SDS011;48397;53.016;-2.260;2022-07-29T19:15:47;9.55;;;5.00;;
44670;SDS011;48397;53.016;-2.260;2022-07-29T19:18:15;10.95;;;4.75;;
44670;SDS011;48397;53.016;-2.260;2022-07-29T19:23:10;13.00;;;4.85;;
44670;SDS011;48397;53.016;-2.260;2022-07-29T19:28:20;9.98;;;4.72;;
44670;SDS011;48397;53.016;-2.260;2022-07-29T19:30:48;10.65;;;5.30;;
44670;SDS011;48397;53.016;-2.260;2022-07-29T19:33:16;11.07;;;5.25;;
44670;SDS011;48397;53.016;-2.260;2022-07-29T19:35:45;9.38;;;5.30;;
44670;SDS011;48397;53.016;-2.260;2022-07-29T19:38:18;12.60;;;5.43;;
44670;SDS011;48397;53.016;-2.260;2022-07-29T19:40:46;8.75;;;4.80;;
44670;SDS011;48397;53.016;-2.260;2022-07-29T19:46:01;10.30;;;5.28;;
44670;SDS011;48397;53.016;-2.260;2022-07-29T19:48:29;10.15;;;5.70;;
44670;SDS011;48397;53.016;-2.260;2022-07-29T19:50:58;11.02;;;5.07;;
44670;SDS011;48397;53.016;-2.260;2022-07-29T19:53:25;8.27;;;5.25;;
44670;SDS011;48397;53.016;-2.260;2022-07-29T19:58:21;9.88;;;4.72;;
44670;SDS011;48397;53.016;-2.260;2022-07-29T20:00:53;13.73;;;5.38;;
44670;SDS011;48397;53.016;-2.260;2022-07-29T20:03:20;8.27;;;5.55;;
44670;SDS011;48397;53.016;-2.260;2022-07-29T20:05:48;14.35;;;5.75;;